createdAt,value
2023-01-04T00:00:02.750Z,77
2023-01-04T00:20:02.985Z,77
2023-01-04T00:40:03.643Z,77
2023-01-04T01:00:03.139Z,77
2023-01-04T01:20:03.166Z,77
2023-01-04T01:40:02.992Z,78
2023-01-04T02:00:02.488Z,79
2023-01-04T02:20:02.434Z,79
2023-01-04T02:40:02.997Z,79
2023-01-04T03:00:02.356Z,79
2023-01-04T03:20:03.358Z,80
2023-01-04T03:40:03.099Z,80
2023-01-04T04:00:02.758Z,81
2023-01-04T04:20:02.685Z,81
2023-01-04T04:40:03.185Z,82
2023-01-04T05:00:02.575Z,82
2023-01-04T05:20:03.470Z,83
2023-01-04T05:40:03.138Z,83
2023-01-04T06:00:02.804Z,83
2023-01-04T06:20:02.617Z,83
2023-01-04T06:40:03.246Z,83
2023-01-04T07:00:02.715Z,83
2023-01-04T07:20:02.558Z,82
2023-01-04T07:40:03.005Z,82
2023-01-04T08:00:02.701Z,81
2023-01-04T08:20:02.546Z,82
2023-01-04T08:40:03.260Z,83
2023-01-04T09:00:04.065Z,84
2023-01-04T09:20:03.079Z,86
2023-01-04T09:40:02.693Z,87
2023-01-04T10:00:03.778Z,87
2023-01-04T10:40:02.810Z,89
2023-01-04T11:00:03.328Z,89
2023-01-04T11:20:03.478Z,90
2023-01-04T11:40:04.433Z,89
2023-01-04T12:00:03.009Z,90
2023-01-04T12:20:04.543Z,90
2023-01-04T12:40:03.081Z,90
2023-01-04T13:00:02.671Z,90
2023-01-04T13:20:03.273Z,90
2023-01-04T13:40:02.674Z,91
2023-01-04T14:00:03.319Z,91
2023-01-04T14:20:03.070Z,91
2023-01-04T14:40:02.740Z,92
2023-01-04T15:00:03.269Z,92
2023-01-04T15:20:02.814Z,92
2023-01-04T15:40:04.219Z,93
2023-01-04T16:00:02.635Z,93
2023-01-04T16:20:02.541Z,93
2023-01-04T16:40:08.790Z,92
2023-01-04T17:00:02.777Z,92
2023-01-04T17:20:02.909Z,92
2023-01-04T17:40:02.505Z,92
2023-01-04T18:00:02.941Z,92
2023-01-04T18:20:02.938Z,91
2023-01-04T18:40:02.625Z,91
2023-01-04T19:00:03.824Z,89
2023-01-04T19:20:02.656Z,89
2023-01-04T19:40:03.195Z,88
2023-01-04T20:00:02.778Z,87
2023-01-04T20:20:02.811Z,87
2023-01-04T20:40:03.377Z,88
2023-01-04T21:00:04.447Z,88
2023-01-04T21:20:03.439Z,88
2023-01-04T21:40:03.101Z,87
2023-01-04T22:00:02.913Z,87
2023-01-04T22:20:02.625Z,88
2023-01-04T22:40:02.997Z,89
2023-01-04T23:00:02.736Z,90
2023-01-04T23:20:10.463Z,90
2023-01-04T23:40:03.482Z,89
